sensor_id;sensor_type;location;lat;lon;timestamp;pressure;altitude;pressure_sealevel;temperature;humidity
6347;BME280;3206;42.666;23.600;2022-10-16T00:01:27;95826.19;;;9.22;100.00
6347;BME280;3206;42.666;23.600;2022-10-16T00:03:54;95831.50;;;9.22;100.00
6347;BME280;3206;42.666;23.600;2022-10-16T00:06:23;95825.88;;;9.24;100.00
6347;BME280;3206;42.666;23.600;2022-10-16T00:08:50;95823.69;;;9.17;100.00
6347;BME280;3206;42.666;23.600;2022-10-16T00:11:19;95825.38;;;9.22;100.00
6347;BME280;3206;42.666;23.600;2022-10-16T00:13:49;95828.84;;;9.22;100.00
6347;BME280;3206;42.666;23.600;2022-10-16T00:16:16;95817.69;;;9.03;100.00
6347;BME280;3206;42.666;23.600;2022-10-16T00:18:44;95839.19;;;9.07;100.00
6347;BME280;3206;42.666;23.600;2022-10-16T00:21:12;95833.84;;;8.98;100.00
6347;BME280;3206;42.666;23.600;2022-10-16T00:23:40;95837.91;;;8.96;100.00
6347;BME280;3206;42.666;23.600;2022-10-16T00:26:09;95842.44;;;8.95;100.00
6347;BME280;3206;42.666;23.600;2022-10-16T00:28:36;95841.00;;;8.81;100.00
6347;BME280;3206;42.666;23.600;2022-10-16T00:31:06;95843.69;;;8.89;100.00
6347;BME280;3206;42.666;23.600;2022-10-16T00:33:33;95814.81;;;8.74;100.00
6347;BME280;3206;42.666;23.600;2022-10-16T00:36:01;95845.25;;;8.90;100.00
6347;BME280;3206;42.666;23.600;2022-10-16T00:38:28;95849.16;;;8.84;100.00
6347;BME280;3206;42.666;23.600;2022-10-16T00:40:55;95847.44;;;8.88;100.00
6347;BME280;3206;42.666;23.600;2022-10-16T00:43:37;95848.06;;;8.85;100.00
6347;BME280;3206;42.666;23.600;2022-10-16T00:46:10;95850.06;;;8.71;100.00
6347;BME280;3206;42.666;23.600;2022-10-16T00:48:39;95848.66;;;8.65;100.00
6347;BME280;3206;42.666;23.600;2022-10-16T00:51:07;95839.94;;;8.43;100.00
6347;BME280;3206;42.666;23.600;2022-10-16T00:53:34;95848.41;;;8.45;100.00
6347;BME280;3206;42.666;23.600;2022-10-16T00:56:01;95847.16;;;8.42;100.00
6347;BME280;3206;42.666;23.600;2022-10-16T00:58:28;95858.38;;;8.31;100.00
6347;BME280;3206;42.666;23.600;2022-10-16T01:00:55;95856.16;;;8.24;100.00
6347;BME280;3206;42.666;23.600;2022-10-16T01:03:26;95850.16;;;8.19;100.00
6347;BME280;3206;42.666;23.600;2022-10-16T01:06:09;95859.31;;;8.04;100.00
6347;BME280;3206;42.666;23.600;2022-10-16T01:08:50;95856.28;;;7.97;100.00
6347;BME280;3206;42.666;23.600;2022-10-16T01:11:22;95812.44;;;7.64;100.00
6347;BME280;3206;42.666;23.600;2022-10-16T01:13:54;95850.75;;;7.85;100.00
6347;BME280;3206;42.666;23.600;2022-10-16T01:16:28;95855.88;;;7.82;100.00
6347;BME280;3206;42.666;23.600;2022-10-16T01:19:05;95854.00;;;7.82;100.00
6347;BME280;3206;42.666;23.600;2022-10-16T01:21:38;95853.88;;;7.65;100.00
6347;BME280;3206;42.666;23.600;2022-10-16T01:24:12;95855.56;;;7.61;100.00
6347;BME280;3206;42.666;23.600;2022-10-16T01:27:02;95849.91;;;7.54;100.00
6347;BME280;3206;42.666;23.600;2022-10-16T01:29:34;95845.78;;;7.48;100.00
6347;BME280;3206;42.666;23.600;2022-10-16T01:32:07;95845.00;;;7.48;100.00
6347;BME280;3206;42.666;23.600;2022-10-16T01:34:39;95847.00;;;7.42;100.00
6347;BME280;3206;42.666;23.600;2022-10-16T01:37:12;95840.31;;;7.32;100.00
6347;BME280;3206;42.666;23.600;2022-10-16T01:39:42;95844.88;;;7.31;100.00
6347;BME280;3206;42.666;23.600;2022-10-16T01:42:15;95843.31;;;7.30;100.00
6347;BME280;3206;42.666;23.600;2022-10-16T01:44:44;95851.75;;;7.32;100.00
6347;BME280;3206;42.666;23.600;2022-10-16T01:47:13;95853.03;;;7.35;100.00
6347;BME280;3206;42.666;23.600;2022-10-16T01:49:41;95855.56;;;7.39;100.00
6347;BME280;3206;42.666;23.600;2022-10-16T01:52:12;95857.25;;;7.36;100.00
6347;BME280;3206;42.666;23.600;2022-10-16T01:54:42;95856.28;;;7.32;100.00
6347;BME280;3206;42.666;23.600;2022-10-16T01:57:11;95858.84;;;7.37;100.00
6347;BME280;3206;42.666;23.600;2022-10-16T01:59:42;95859.13;;;7.35;100.00
6347;BME280;3206;42.666;23.600;2022-10-16T02:02:11;95863.47;;;7.31;100.00
6347;BME280;3206;42.666;23.600;2022-10-16T02:04:42;95868.00;;;7.31;100.00
6347;BME280;3206;42.666;23.600;2022-10-16T02:07:10;95866.72;;;7.28;100.00
6347;BME280;3206;42.666;23.600;2022-10-16T02:09:37;95871.72;;;7.30;100.00
6347;BME280;3206;42.666;23.600;2022-10-16T02:12:09;95872.94;;;7.24;100.00
6347;BME280;3206;42.666;23.600;2022-10-16T02:14:40;95870.56;;;7.22;100.00
6347;BME280;3206;42.666;23.600;2022-10-16T02:17:11;95873.78;;;7.32;100.00
6347;BME280;3206;42.666;23.600;2022-10-16T02:19:38;95875.59;;;7.24;100.00
6347;BME280;3206;42.666;23.600;2022-10-16T02:22:08;95849.47;;;7.04;100.00
6347;BME280;3206;42.666;23.600;2022-10-16T02:24:39;95868.22;;;7.21;100.00
6347;BME280;3206;42.666;23.600;2022-10-16T02:27:10;95876.88;;;7.13;100.00
6347;BME280;3206;42.666;23.600;2022-10-16T02:29:44;95882.69;;;7.15;100.00
6347;BME280;3206;42.666;23.600;2022-10-16T02:32:17;95885.84;;;7.17;100.00
6347;BME280;3206;42.666;23.600;2022-10-16T02:34:47;95887.63;;;7.08;100.00
6347;BME280;3206;42.666;23.600;2022-10-16T02:37:15;95884.81;;;6.91;100.00
6347;BME280;3206;42.666;23.600;2022-10-16T02:39:42;95890.41;;;6.89;100.00
6347;BME280;3206;42.666;23.600;2022-10-16T02:42:10;95882.16;;;6.91;100.00
6347;BME280;3206;42.666;23.600;2022-10-16T02:44:37;95883.22;;;6.90;100.00
6347;BME280;3206;42.666;23.600;2022-10-16T02:47:05;95892.16;;;6.94;100.00
6347;BME280;3206;42.666;23.600;2022-10-16T02:49:33;95893.25;;;6.93;100.00
6347;BME280;3206;42.666;23.600;2022-10-16T02:51:59;95890.19;;;6.99;100.00
6347;BME280;3206;42.666;23.600;2022-10-16T02:54:26;95887.75;;;6.89;100.00
6347;BME280;3206;42.666;23.600;2022-10-16T02:56:52;95889.63;;;6.89;100.00
6347;BME280;3206;42.666;23.600;2022-10-16T02:59:19;95891.59;;;6.83;100.00
6347;BME280;3206;42.666;23.600;2022-10-16T03:01:46;95891.31;;;6.85;100.00
6347;BME280;3206;42.666;23.600;2022-10-16T03:04:14;95895.06;;;6.84;100.00
6347;BME280;3206;42.666;23.600;2022-10-16T03:06:40;95896.69;;;6.80;100.00
6347;BME280;3206;42.666;23.600;2022-10-16T03:09:07;95888.38;;;6.73;100.00
6347;BME280;3206;42.666;23.600;2022-10-16T03:11:34;95888.03;;;6.74;100.00
6347;BME280;3206;42.666;23.600;2022-10-16T03:14:01;95889.72;;;6.70;100.00
6347;BME280;3206;42.666;23.600;2022-10-16T03:16:27;95892.00;;;6.77;100.00
6347;BME280;3206;42.666;23.600;2022-10-16T03:18:54;95903.50;;;6.72;100.00
6347;BME280;3206;42.666;23.600;2022-10-16T03:21:22;95902.59;;;6.77;100.00
6347;BME280;3206;42.666;23.600;2022-10-16T03:23:49;95875.28;;;6.63;100.00
6347;BME280;3206;42.666;23.600;2022-10-16T03:26:15;95906.31;;;6.49;100.00
6347;BME280;3206;42.666;23.600;2022-10-16T03:28:42;95904.97;;;6.38;100.00
6347;BME280;3206;42.666;23.600;2022-10-16T03:31:08;95906.44;;;6.57;100.00
6347;BME280;3206;42.666;23.600;2022-10-16T03:33:35;95903.22;;;6.60;100.00
6347;BME280;3206;42.666;23.600;2022-10-16T03:36:02;95904.97;;;6.65;100.00
6347;BME280;3206;42.666;23.600;2022-10-16T03:38:30;95914.50;;;6.66;100.00
6347;BME280;3206;42.666;23.600;2022-10-16T03:40:57;95913.03;;;6.60;100.00
6347;BME280;3206;42.666;23.600;2022-10-16T03:43:23;95902.91;;;6.62;100.00
6347;BME280;3206;42.666;23.600;2022-10-16T03:45:50;95905.56;;;6.62;100.00
6347;BME280;3206;42.666;23.600;2022-10-16T03:48:17;95910.47;;;6.55;100.00
6347;BME280;3206;42.666;23.600;2022-10-16T03:50:44;95906.84;;;6.51;100.00
6347;BME280;3206;42.666;23.600;2022-10-16T03:53:11;95907.72;;;6.46;100.00
6347;BME280;3206;42.666;23.600;2022-10-16T03:55:40;95898.38;;;6.49;100.00
6347;BME280;3206;42.666;23.600;2022-10-16T03:58:07;95903.25;;;6.15;100.00
6347;BME280;3206;42.666;23.600;2022-10-16T04:00:34;95910.06;;;6.34;100.00
6347;BME280;3206;42.666;23.600;2022-10-16T04:03:01;95906.81;;;6.24;100.00
6347;BME280;3206;42.666;23.600;2022-10-16T04:05:27;95911.53;;;5.95;100.00
6347;BME280;3206;42.666;23.600;2022-10-16T04:07:54;95909.72;;;6.09;100.00
6347;BME280;3206;42.666;23.600;2022-10-16T04:10:21;95910.63;;;6.18;100.00
6347;BME280;3206;42.666;23.600;2022-10-16T04:12:49;95912.38;;;6.22;100.00
6347;BME280;3206;42.666;23.600;2022-10-16T04:15:15;95910.22;;;6.11;100.00
6347;BME280;3206;42.666;23.600;2022-10-16T04:17:42;95915.13;;;6.04;100.00
6347;BME280;3206;42.666;23.600;2022-10-16T04:20:09;95912.44;;;5.72;100.00
6347;BME280;3206;42.666;23.600;2022-10-16T04:22:36;95918.41;;;5.96;100.00
6347;BME280;3206;42.666;23.600;2022-10-16T04:25:06;95914.03;;;6.05;100.00
6347;BME280;3206;42.666;23.600;2022-10-16T04:27:33;95913.84;;;5.83;100.00
6347;BME280;3206;42.666;23.600;2022-10-16T04:30:01;95924.38;;;5.69;100.00
6347;BME280;3206;42.666;23.600;2022-10-16T04:32:27;95913.66;;;5.61;100.00
6347;BME280;3206;42.666;23.600;2022-10-16T04:34:54;95917.59;;;5.63;100.00
6347;BME280;3206;42.666;23.600;2022-10-16T04:37:23;95926.59;;;5.81;100.00
6347;BME280;3206;42.666;23.600;2022-10-16T04:39:50;95933.13;;;5.88;100.00
6347;BME280;3206;42.666;23.600;2022-10-16T04:42:17;95929.31;;;5.76;100.00
6347;BME280;3206;42.666;23.600;2022-10-16T04:44:43;95940.94;;;5.80;100.00
6347;BME280;3206;42.666;23.600;2022-10-16T04:47:11;95937.22;;;5.81;100.00
6347;BME280;3206;42.666;23.600;2022-10-16T04:49:38;95936.63;;;5.84;100.00
6347;BME280;3206;42.666;23.600;2022-10-16T04:52:05;95939.00;;;5.85;100.00
6347;BME280;3206;42.666;23.600;2022-10-16T04:54:32;95948.03;;;5.84;100.00
6347;BME280;3206;42.666;23.600;2022-10-16T04:56:58;95947.94;;;5.89;100.00
6347;BME280;3206;42.666;23.600;2022-10-16T04:59:25;95945.72;;;5.78;100.00
6347;BME280;3206;42.666;23.600;2022-10-16T05:01:51;95958.41;;;5.81;100.00
6347;BME280;3206;42.666;23.600;2022-10-16T05:04:19;95949.25;;;5.92;100.00
6347;BME280;3206;42.666;23.600;2022-10-16T05:06:47;95947.00;;;5.99;100.00
6347;BME280;3206;42.666;23.600;2022-10-16T05:09:14;95958.19;;;5.96;100.00
6347;BME280;3206;42.666;23.600;2022-10-16T05:11:41;95954.88;;;6.04;100.00
6347;BME280;3206;42.666;23.600;2022-10-16T05:14:07;95961.94;;;6.08;100.00
6347;BME280;3206;42.666;23.600;2022-10-16T05:16:34;95964.66;;;5.90;100.00
6347;BME280;3206;42.666;23.600;2022-10-16T05:19:00;95970.59;;;5.82;100.00
6347;BME280;3206;42.666;23.600;2022-10-16T05:21:28;95972.25;;;5.96;100.00
6347;BME280;3206;42.666;23.600;2022-10-16T05:23:55;95967.13;;;6.00;100.00
6347;BME280;3206;42.666;23.600;2022-10-16T05:26:22;95969.41;;;6.06;100.00
6347;BME280;3206;42.666;23.600;2022-10-16T05:28:49;95977.50;;;6.15;100.00
6347;BME280;3206;42.666;23.600;2022-10-16T05:31:16;95975.63;;;6.15;100.00
6347;BME280;3206;42.666;23.600;2022-10-16T05:33:43;95978.78;;;6.17;100.00
6347;BME280;3206;42.666;23.600;2022-10-16T05:36:10;95980.69;;;6.30;100.00
6347;BME280;3206;42.666;23.600;2022-10-16T05:38:39;95985.13;;;6.35;100.00
6347;BME280;3206;42.666;23.600;2022-10-16T05:41:06;95981.41;;;6.36;100.00
6347;BME280;3206;42.666;23.600;2022-10-16T05:43:33;95978.66;;;6.41;100.00
6347;BME280;3206;42.666;23.600;2022-10-16T05:46:02;95984.56;;;6.51;100.00
6347;BME280;3206;42.666;23.600;2022-10-16T05:48:29;95984.78;;;6.55;100.00
6347;BME280;3206;42.666;23.600;2022-10-16T05:50:57;95995.50;;;6.63;100.00
6347;BME280;3206;42.666;23.600;2022-10-16T05:53:24;95990.91;;;6.69;100.00
6347;BME280;3206;42.666;23.600;2022-10-16T05:55:53;95994.31;;;6.69;100.00
6347;BME280;3206;42.666;23.600;2022-10-16T05:58:21;95998.75;;;6.60;100.00
6347;BME280;3206;42.666;23.600;2022-10-16T06:00:58;95997.09;;;6.78;100.00
6347;BME280;3206;42.666;23.600;2022-10-16T06:03:25;95991.47;;;6.66;100.00
6347;BME280;3206;42.666;23.600;2022-10-16T06:05:52;95997.56;;;6.80;100.00
6347;BME280;3206;42.666;23.600;2022-10-16T06:08:21;96004.09;;;7.01;100.00
6347;BME280;3206;42.666;23.600;2022-10-16T06:10:48;96003.50;;;7.04;100.00
6347;BME280;3206;42.666;23.600;2022-10-16T06:13:16;96003.72;;;7.21;100.00
6347;BME280;3206;42.666;23.600;2022-10-16T06:15:43;96003.09;;;7.37;100.00
6347;BME280;3206;42.666;23.600;2022-10-16T06:18:10;96011.44;;;7.57;100.00
6347;BME280;3206;42.666;23.600;2022-10-16T06:20:37;96018.97;;;7.77;100.00
6347;BME280;3206;42.666;23.600;2022-10-16T06:23:04;96030.50;;;7.86;100.00
6347;BME280;3206;42.666;23.600;2022-10-16T06:25:30;96031.34;;;7.95;100.00
6347;BME280;3206;42.666;23.600;2022-10-16T06:27:57;96027.97;;;8.03;100.00
6347;BME280;3206;42.666;23.600;2022-10-16T06:30:25;96032.88;;;8.10;100.00
6347;BME280;3206;42.666;23.600;2022-10-16T06:32:52;96028.88;;;8.34;100.00
6347;BME280;3206;42.666;23.600;2022-10-16T06:35:20;96040.22;;;8.48;100.00
6347;BME280;3206;42.666;23.600;2022-10-16T06:37:47;96041.63;;;8.68;100.00
6347;BME280;3206;42.666;23.600;2022-10-16T06:40:14;96051.69;;;8.79;100.00
6347;BME280;3206;42.666;23.600;2022-10-16T06:42:41;96053.50;;;8.92;100.00
6347;BME280;3206;42.666;23.600;2022-10-16T06:45:08;96050.75;;;9.06;100.00
6347;BME280;3206;42.666;23.600;2022-10-16T06:47:36;96048.81;;;9.28;100.00
6347;BME280;3206;42.666;23.600;2022-10-16T06:50:04;96057.50;;;9.42;100.00
6347;BME280;3206;42.666;23.600;2022-10-16T06:52:31;96056.75;;;9.50;100.00
6347;BME280;3206;42.666;23.600;2022-10-16T06:54:58;96064.59;;;9.55;100.00
6347;BME280;3206;42.666;23.600;2022-10-16T06:57:25;96066.84;;;9.70;100.00
6347;BME280;3206;42.666;23.600;2022-10-16T06:59:51;96066.41;;;9.85;100.00
6347;BME280;3206;42.666;23.600;2022-10-16T07:02:18;96063.00;;;10.10;100.00
6347;BME280;3206;42.666;23.600;2022-10-16T07:04:47;96068.22;;;10.32;100.00
6347;BME280;3206;42.666;23.600;2022-10-16T07:07:13;96076.72;;;10.42;100.00
6347;BME280;3206;42.666;23.600;2022-10-16T07:09:40;96081.59;;;10.49;100.00
6347;BME280;3206;42.666;23.600;2022-10-16T07:12:07;96077.63;;;10.55;100.00
6347;BME280;3206;42.666;23.600;2022-10-16T07:14:34;96087.53;;;10.54;100.00
6347;BME280;3206;42.666;23.600;2022-10-16T07:17:00;96083.59;;;10.69;100.00
6347;BME280;3206;42.666;23.600;2022-10-16T07:19:28;96084.28;;;11.20;100.00
6347;BME280;3206;42.666;23.600;2022-10-16T07:21:56;96083.44;;;12.11;100.00
6347;BME280;3206;42.666;23.600;2022-10-16T07:24:23;96084.03;;;13.55;100.00
6347;BME280;3206;42.666;23.600;2022-10-16T07:29:21;96083.69;;;17.60;100.00
6347;BME280;3206;42.666;23.600;2022-10-16T07:31:48;96095.63;;;17.59;100.00
6347;BME280;3206;42.666;23.600;2022-10-16T07:34:17;96100.66;;;15.66;100.00
6347;BME280;3206;42.666;23.600;2022-10-16T07:36:43;96095.13;;;14.37;100.00
6347;BME280;3206;42.666;23.600;2022-10-16T07:39:11;96096.97;;;13.29;100.00
6347;BME280;3206;42.666;23.600;2022-10-16T07:41:37;96093.78;;;13.15;100.00
6347;BME280;3206;42.666;23.600;2022-10-16T07:44:04;96094.41;;;12.80;100.00
6347;BME280;3206;42.666;23.600;2022-10-16T07:46:33;96087.56;;;12.50;100.00
6347;BME280;3206;42.666;23.600;2022-10-16T07:49:01;96094.41;;;12.59;100.00
6347;BME280;3206;42.666;23.600;2022-10-16T07:51:28;96088.34;;;12.50;100.00
6347;BME280;3206;42.666;23.600;2022-10-16T07:53:55;96087.00;;;12.44;100.00
6347;BME280;3206;42.666;23.600;2022-10-16T07:56:21;96083.69;;;12.59;100.00
6347;BME280;3206;42.666;23.600;2022-10-16T07:58:49;96084.22;;;12.73;100.00
6347;BME280;3206;42.666;23.600;2022-10-16T08:01:17;96082.69;;;12.84;100.00
6347;BME280;3206;42.666;23.600;2022-10-16T08:03:47;96083.41;;;12.93;100.00
6347;BME280;3206;42.666;23.600;2022-10-16T08:06:14;96078.09;;;12.52;100.00
6347;BME280;3206;42.666;23.600;2022-10-16T08:08:41;96089.31;;;12.66;100.00
6347;BME280;3206;42.666;23.600;2022-10-16T08:11:08;96088.16;;;12.96;100.00
6347;BME280;3206;42.666;23.600;2022-10-16T08:13:35;96088.56;;;13.30;100.00
6347;BME280;3206;42.666;23.600;2022-10-16T08:16:02;96094.72;;;13.31;100.00
6347;BME280;3206;42.666;23.600;2022-10-16T08:18:33;96085.47;;;13.08;100.00
6347;BME280;3206;42.666;23.600;2022-10-16T08:21:01;96087.44;;;13.19;100.00
6347;BME280;3206;42.666;23.600;2022-10-16T08:23:28;96091.94;;;13.39;100.00
6347;BME280;3206;42.666;23.600;2022-10-16T08:25:55;96083.31;;;13.34;100.00
6347;BME280;3206;42.666;23.600;2022-10-16T08:28:23;96091.16;;;13.39;100.00
6347;BME280;3206;42.666;23.600;2022-10-16T08:30:49;96088.72;;;13.58;100.00
6347;BME280;3206;42.666;23.600;2022-10-16T08:33:16;96082.03;;;13.64;100.00
6347;BME280;3206;42.666;23.600;2022-10-16T08:35:50;96087.31;;;13.84;100.00
6347;BME280;3206;42.666;23.600;2022-10-16T08:38:19;96087.72;;;13.98;100.00
6347;BME280;3206;42.666;23.600;2022-10-16T08:40:46;96087.75;;;14.22;100.00
6347;BME280;3206;42.666;23.600;2022-10-16T08:43:29;96092.56;;;14.29;100.00
6347;BME280;3206;42.666;23.600;2022-10-16T08:46:17;96092.06;;;14.51;100.00
6347;BME280;3206;42.666;23.600;2022-10-16T08:48:49;96080.91;;;14.64;100.00
6347;BME280;3206;42.666;23.600;2022-10-16T08:51:20;96089.31;;;14.75;100.00
6347;BME280;3206;42.666;23.600;2022-10-16T08:53:53;96090.06;;;15.02;100.00
6347;BME280;3206;42.666;23.600;2022-10-16T08:56:21;96085.09;;;14.89;100.00
6347;BME280;3206;42.666;23.600;2022-10-16T08:58:48;96098.66;;;15.20;100.00
6347;BME280;3206;42.666;23.600;2022-10-16T09:01:18;96098.19;;;15.45;100.00
6347;BME280;3206;42.666;23.600;2022-10-16T09:03:56;96097.75;;;16.21;100.00
6347;BME280;3206;42.666;23.600;2022-10-16T09:06:38;96098.50;;;17.69;100.00
6347;BME280;3206;42.666;23.600;2022-10-16T09:09:24;96085.38;;;18.68;84.67
6347;BME280;3206;42.666;23.600;2022-10-16T09:11:59;96086.31;;;20.28;72.85
6347;BME280;3206;42.666;23.600;2022-10-16T09:14:43;96080.22;;;23.19;61.10
6347;BME280;3206;42.666;23.600;2022-10-16T09:17:22;96089.47;;;24.04;55.88
6347;BME280;3206;42.666;23.600;2022-10-16T09:19:58;96093.13;;;24.78;53.25
6347;BME280;3206;42.666;23.600;2022-10-16T09:22:31;96092.16;;;25.32;51.28
6347;BME280;3206;42.666;23.600;2022-10-16T09:25:10;96090.22;;;25.89;47.98
6347;BME280;3206;42.666;23.600;2022-10-16T09:27:37;96093.25;;;26.21;46.44
6347;BME280;3206;42.666;23.600;2022-10-16T09:30:11;96074.44;;;26.46;45.74
6347;BME280;3206;42.666;23.600;2022-10-16T09:32:39;96086.84;;;26.31;44.87
6347;BME280;3206;42.666;23.600;2022-10-16T09:35:11;96081.13;;;27.10;44.02
6347;BME280;3206;42.666;23.600;2022-10-16T09:37:39;96079.00;;;28.24;42.26
6347;BME280;3206;42.666;23.600;2022-10-16T09:40:23;96074.03;;;28.03;42.10
6347;BME280;3206;42.666;23.600;2022-10-16T09:42:53;96073.91;;;26.97;42.40
6347;BME280;3206;42.666;23.600;2022-10-16T09:45:23;96083.38;;;25.74;43.27
6347;BME280;3206;42.666;23.600;2022-10-16T09:47:50;96072.56;;;25.63;45.95
6347;BME280;3206;42.666;23.600;2022-10-16T09:50:23;96064.03;;;26.60;42.68
6347;BME280;3206;42.666;23.600;2022-10-16T09:53:02;96072.16;;;25.02;42.71
6347;BME280;3206;42.666;23.600;2022-10-16T09:55:30;96072.06;;;23.15;47.30
6347;BME280;3206;42.666;23.600;2022-10-16T09:57:57;96060.91;;;21.56;49.59
6347;BME280;3206;42.666;23.600;2022-10-16T10:00:24;96051.41;;;20.91;54.30
6347;BME280;3206;42.666;23.600;2022-10-16T10:02:51;96050.25;;;20.28;57.88
6347;BME280;3206;42.666;23.600;2022-10-16T10:05:21;96061.44;;;20.19;61.19
6347;BME280;3206;42.666;23.600;2022-10-16T10:07:54;96058.22;;;19.63;60.51
6347;BME280;3206;42.666;23.600;2022-10-16T10:10:24;96055.97;;;19.69;60.63
6347;BME280;3206;42.666;23.600;2022-10-16T10:12:53;96041.94;;;19.60;63.66
6347;BME280;3206;42.666;23.600;2022-10-16T10:15:21;96048.41;;;19.48;61.97
6347;BME280;3206;42.666;23.600;2022-10-16T10:17:51;96046.88;;;19.14;64.01
6347;BME280;3206;42.666;23.600;2022-10-16T10:20:27;96042.59;;;19.13;65.21
6347;BME280;3206;42.666;23.600;2022-10-16T10:22:55;96035.84;;;18.64;67.23
6347;BME280;3206;42.666;23.600;2022-10-16T10:25:31;96040.59;;;19.07;67.31
6347;BME280;3206;42.666;23.600;2022-10-16T10:31:04;96024.69;;;19.02;65.81
6347;BME280;3206;42.666;23.600;2022-10-16T10:33:41;96033.16;;;19.00;65.15
6347;BME280;3206;42.666;23.600;2022-10-16T10:36:19;96029.13;;;19.53;63.97
6347;BME280;3206;42.666;23.600;2022-10-16T10:38:50;96024.56;;;20.11;65.74
6347;BME280;3206;42.666;23.600;2022-10-16T10:44:29;96017.06;;;21.72;56.89
6347;BME280;3206;42.666;23.600;2022-10-16T10:47:08;96028.69;;;23.42;52.72
6347;BME280;3206;42.666;23.600;2022-10-16T10:49:47;96023.91;;;24.55;47.80
6347;BME280;3206;42.666;23.600;2022-10-16T10:52:41;96030.84;;;25.56;45.35
6347;BME280;3206;42.666;23.600;2022-10-16T10:55:16;96025.63;;;27.22;43.19
6347;BME280;3206;42.666;23.600;2022-10-16T10:57:57;96019.50;;;29.06;40.04
6347;BME280;3206;42.666;23.600;2022-10-16T11:00:31;96019.53;;;29.47;39.42
6347;BME280;3206;42.666;23.600;2022-10-16T11:03:08;96008.34;;;30.38;37.13
6347;BME280;3206;42.666;23.600;2022-10-16T11:05:40;95999.53;;;31.71;35.24
6347;BME280;3206;42.666;23.600;2022-10-16T11:08:12;96000.47;;;30.49;35.19
6347;BME280;3206;42.666;23.600;2022-10-16T11:10:47;95994.50;;;30.04;34.48
6347;BME280;3206;42.666;23.600;2022-10-16T11:13:24;95997.97;;;30.29;35.00
6347;BME280;3206;42.666;23.600;2022-10-16T11:15:58;95990.19;;;30.28;35.50
6347;BME280;3206;42.666;23.600;2022-10-16T11:18:32;95995.78;;;28.39;36.18
6347;BME280;3206;42.666;23.600;2022-10-16T11:21:04;95987.00;;;26.94;37.69
6347;BME280;3206;42.666;23.600;2022-10-16T11:23:37;95989.53;;;24.17;42.42
6347;BME280;3206;42.666;23.600;2022-10-16T11:26:12;95984.25;;;23.99;41.74
6347;BME280;3206;42.666;23.600;2022-10-16T11:28:44;95976.53;;;23.36;44.08
6347;BME280;3206;42.666;23.600;2022-10-16T11:31:17;95975.00;;;22.43;44.47
6347;BME280;3206;42.666;23.600;2022-10-16T11:33:49;95980.47;;;22.15;45.49
6347;BME280;3206;42.666;23.600;2022-10-16T11:36:19;95976.56;;;21.11;47.09
6347;BME280;3206;42.666;23.600;2022-10-16T11:38:56;95965.72;;;21.32;46.82
6347;BME280;3206;42.666;23.600;2022-10-16T11:41:28;95971.16;;;21.28;49.35
6347;BME280;3206;42.666;23.600;2022-10-16T11:44:12;95976.59;;;21.56;48.80
6347;BME280;3206;42.666;23.600;2022-10-16T11:46:50;95972.38;;;21.76;48.08
6347;BME280;3206;42.666;23.600;2022-10-16T11:49:21;95970.41;;;21.91;47.36
6347;BME280;3206;42.666;23.600;2022-10-16T11:51:56;95971.97;;;22.09;45.60
6347;BME280;3206;42.666;23.600;2022-10-16T11:54:32;95975.84;;;22.01;46.69
6347;BME280;3206;42.666;23.600;2022-10-16T11:57:08;95972.72;;;21.96;47.83
6347;BME280;3206;42.666;23.600;2022-10-16T11:59:43;95967.31;;;21.82;47.91
6347;BME280;3206;42.666;23.600;2022-10-16T12:02:33;95969.25;;;21.74;49.05
6347;BME280;3206;42.666;23.600;2022-10-16T12:05:11;95975.88;;;21.70;45.69
6347;BME280;3206;42.666;23.600;2022-10-16T12:07:46;95968.09;;;21.72;45.24
6347;BME280;3206;42.666;23.600;2022-10-16T12:10:21;95981.31;;;21.63;46.47
6347;BME280;3206;42.666;23.600;2022-10-16T12:12:48;95976.66;;;21.63;45.34
6347;BME280;3206;42.666;23.600;2022-10-16T12:15:23;95979.72;;;21.62;45.35
6347;BME280;3206;42.666;23.600;2022-10-16T12:17:52;95977.03;;;21.76;45.13
6347;BME280;3206;42.666;23.600;2022-10-16T12:20:23;95968.88;;;21.69;44.55
6347;BME280;3206;42.666;23.600;2022-10-16T12:22:53;95982.84;;;21.92;45.44
6347;BME280;3206;42.666;23.600;2022-10-16T12:25:23;95964.97;;;22.01;44.94
6347;BME280;3206;42.666;23.600;2022-10-16T12:27:56;95981.38;;;22.98;44.32
6347;BME280;3206;42.666;23.600;2022-10-16T12:30:25;95974.69;;;23.23;43.44
6347;BME280;3206;42.666;23.600;2022-10-16T12:32:56;95988.16;;;22.62;43.73
6347;BME280;3206;42.666;23.600;2022-10-16T12:35:26;95983.59;;;22.10;45.71
6347;BME280;3206;42.666;23.600;2022-10-16T12:37:54;95983.22;;;22.11;44.15
6347;BME280;3206;42.666;23.600;2022-10-16T12:40:34;95988.63;;;22.15;44.55
6347;BME280;3206;42.666;23.600;2022-10-16T12:43:12;95992.66;;;23.03;45.63
6347;BME280;3206;42.666;23.600;2022-10-16T12:45:39;95990.25;;;23.77;42.17
6347;BME280;3206;42.666;23.600;2022-10-16T12:48:20;95985.34;;;24.46;40.94
6347;BME280;3206;42.666;23.600;2022-10-16T12:50:47;95983.94;;;24.68;42.35
6347;BME280;3206;42.666;23.600;2022-10-16T12:53:19;95994.22;;;24.16;42.22
6347;BME280;3206;42.666;23.600;2022-10-16T12:55:53;96002.19;;;23.97;43.25
6347;BME280;3206;42.666;23.600;2022-10-16T12:58:37;96003.72;;;24.01;42.89
6347;BME280;3206;42.666;23.600;2022-10-16T13:01:19;95980.22;;;24.14;42.14
6347;BME280;3206;42.666;23.600;2022-10-16T13:06:46;95995.66;;;24.31;42.21
6347;BME280;3206;42.666;23.600;2022-10-16T13:09:29;95998.25;;;26.14;41.10
6347;BME280;3206;42.666;23.600;2022-10-16T13:12:25;95995.31;;;27.96;37.03
6347;BME280;3206;42.666;23.600;2022-10-16T13:15:07;96006.44;;;28.37;36.14
6347;BME280;3206;42.666;23.600;2022-10-16T13:17:45;95993.81;;;28.24;35.34
6347;BME280;3206;42.666;23.600;2022-10-16T13:20:25;96002.69;;;28.88;35.17
6347;BME280;3206;42.666;23.600;2022-10-16T13:23:01;96003.28;;;28.39;34.67
6347;BME280;3206;42.666;23.600;2022-10-16T13:25:40;95999.84;;;28.19;35.57
6347;BME280;3206;42.666;23.600;2022-10-16T13:28:11;96007.66;;;27.88;35.93
6347;BME280;3206;42.666;23.600;2022-10-16T13:30:40;96007.78;;;27.65;36.46
6347;BME280;3206;42.666;23.600;2022-10-16T13:33:13;96008.44;;;26.37;36.81
6347;BME280;3206;42.666;23.600;2022-10-16T13:35:49;96006.94;;;26.32;37.65
6347;BME280;3206;42.666;23.600;2022-10-16T13:38:18;96000.94;;;26.18;38.03